createdAt,value
2023-01-19T00:04:12.079Z,2.95
2023-01-19T00:09:15.465Z,2.73
2023-01-19T00:14:19.114Z,3.17
2023-01-19T00:19:24.786Z,3.60
2023-01-19T00:24:28.092Z,3.70
2023-01-19T00:29:35.286Z,3.78
2023-01-19T00:34:40.446Z,3.57
2023-01-19T00:39:44.750Z,3.94
2023-01-19T00:44:48.308Z,3.71
2023-01-19T00:49:51.854Z,3.93
2023-01-19T00:54:55.222Z,3.50
2023-01-19T00:59:58.658Z,3.02
2023-01-19T01:05:03.875Z,3.34
2023-01-19T01:10:12.890Z,2.75
2023-01-19T01:15:18.127Z,3.95
2023-01-19T01:20:28.922Z,3.29
2023-01-19T01:25:34.954Z,3.52
2023-01-19T01:30:48.547Z,3.43
2023-01-19T01:35:52.877Z,3.21
2023-01-19T01:40:56.441Z,2.72
2023-01-19T01:46:09.800Z,3.21
2023-01-19T01:51:27.330Z,2.46
2023-01-19T01:56:38.870Z,3.43
2023-01-19T02:02:01.267Z,2.84
2023-01-19T02:07:23.686Z,3.17
2023-01-19T02:12:46.657Z,3.35
2023-01-19T02:17:51.230Z,3.33
2023-01-19T02:22:58.394Z,3.50
2023-01-19T02:28:02.261Z,3.37
2023-01-19T02:33:05.605Z,2.91
2023-01-19T02:38:21.654Z,3.19
2023-01-19T02:43:25.984Z,3.04
2023-01-19T02:48:29.527Z,3.17
2023-01-19T02:54:10.597Z,3.40
2023-01-19T02:59:38.072Z,3.45
2023-01-19T03:04:57.289Z,3.15
2023-01-19T03:10:07.870Z,2.83
2023-01-19T03:15:40.477Z,3.40
2023-01-19T03:20:45.929Z,3.18
2023-01-19T03:25:51.518Z,3.38
2023-01-19T03:31:11.888Z,2.78
2023-01-19T03:36:34.768Z,3.21
2023-01-19T03:41:40.760Z,3.09
2023-01-19T03:46:55.522Z,2.65
2023-01-19T03:52:00.164Z,2.96
2023-01-19T03:57:03.737Z,1.59
2023-01-19T04:02:07.360Z,2.67
2023-01-19T04:07:12.106Z,2.75
2023-01-19T04:12:17.745Z,2.48
2023-01-19T04:17:21.706Z,2.81
2023-01-19T04:22:25.696Z,1.84
2023-01-19T04:27:30.001Z,2.53
2023-01-19T04:32:33.853Z,2.31
2023-01-19T04:37:37.553Z,2.33
2023-01-19T04:42:45.944Z,2.69
2023-01-19T04:47:51.528Z,1.80
2023-01-19T04:52:55.146Z,1.64
2023-01-19T04:58:02.032Z,2.31
2023-01-19T05:03:06.077Z,2.25
2023-01-19T05:08:13.221Z,2.42
2023-01-19T05:13:22.769Z,2.62
2023-01-19T05:18:26.040Z,2.37
2023-01-19T05:23:29.311Z,2.64
2023-01-19T05:28:34.298Z,2.49
2023-01-19T05:33:37.629Z,2.22
2023-01-19T05:38:58.700Z,2.48
2023-01-19T05:44:02.075Z,2.50
2023-01-19T05:49:15.725Z,2.31
2023-01-19T05:54:29.234Z,2.08
2023-01-19T05:59:38.406Z,2.36
2023-01-19T06:04:42.186Z,2.51
2023-01-19T06:09:45.440Z,2.21
2023-01-19T06:14:48.973Z,2.55
2023-01-19T06:19:52.682Z,2.35
2023-01-19T06:24:56.129Z,2.60
2023-01-19T06:29:59.611Z,2.28
2023-01-19T06:35:13.061Z,2.45
2023-01-19T06:40:16.437Z,1.54
2023-01-19T06:45:19.785Z,2.32
2023-01-19T06:50:23.145Z,2.12
2023-01-19T06:55:27.728Z,1.55
2023-01-19T07:00:31.661Z,1.64
2023-01-19T07:05:37.844Z,1.92
2023-01-19T07:11:26.541Z,1.81
2023-01-19T07:16:09.835Z,1.58
2023-01-19T07:21:13.457Z,1.83
2023-01-19T07:26:19.411Z,1.82
2023-01-19T07:31:22.804Z,1.90
2023-01-19T07:36:26.390Z,1.80
2023-01-19T07:41:29.961Z,1.90
2023-01-19T07:46:33.575Z,1.30
2023-01-19T07:51:37.294Z,1.61
2023-01-19T07:56:40.534Z,1.56
2023-01-19T08:01:43.876Z,1.84
2023-01-19T08:06:48.217Z,1.78
2023-01-19T08:12:01.569Z,1.73
2023-01-19T08:17:04.919Z,1.83
2023-01-19T08:22:08.551Z,2.01
2023-01-19T08:27:11.844Z,1.41
2023-01-19T08:32:15.231Z,1.96
2023-01-19T08:37:18.631Z,1.91
2023-01-19T08:42:22.098Z,1.85
2023-01-19T08:47:25.949Z,2.34
2023-01-19T08:52:30.383Z,2.20
2023-01-19T08:57:33.962Z,2.41
2023-01-19T09:02:38.258Z,2.55
2023-01-19T09:07:42.748Z,2.67
2023-01-19T09:12:55.484Z,2.34
2023-01-19T09:17:59.347Z,2.63
2023-01-19T09:23:03.028Z,2.52
2023-01-19T09:28:10.120Z,2.70
2023-01-19T09:33:17.384Z,2.73
2023-01-19T09:38:21.211Z,2.50
2023-01-19T09:43:48.322Z,2.81
2023-01-19T09:49:00.786Z,2.39
2023-01-19T09:54:13.246Z,2.49
2023-01-19T09:59:34.790Z,2.34
2023-01-19T10:04:47.328Z,2.67
2023-01-19T10:10:10.959Z,2.61
2023-01-19T10:15:55.902Z,2.62
2023-01-19T10:21:13.425Z,2.52
2023-01-19T10:26:23.307Z,2.59
2023-01-19T10:31:27.009Z,1.98
2023-01-19T10:36:41.729Z,1.98
2023-01-19T10:41:55.258Z,2.16
2023-01-19T10:47:01.136Z,2.58
2023-01-19T10:52:07.868Z,2.77
2023-01-19T10:57:26.699Z,2.08
2023-01-19T11:02:33.334Z,2.57
2023-01-19T11:07:36.928Z,2.31
2023-01-19T11:12:42.788Z,2.18
2023-01-19T11:17:48.993Z,1.92
2023-01-19T11:23:08.309Z,2.72
2023-01-19T11:28:35.771Z,2.79
2023-01-19T11:33:50.556Z,2.76
2023-01-19T11:38:57.297Z,2.34
2023-01-19T11:44:17.005Z,2.49
2023-01-19T11:49:43.095Z,2.79
2023-01-19T11:54:55.554Z,2.73
2023-01-19T12:00:04.325Z,2.59
2023-01-19T12:05:15.060Z,3.34
2023-01-19T12:10:32.814Z,3.25
2023-01-19T12:15:43.927Z,2.40
2023-01-19T12:20:53.862Z,2.96
2023-01-19T12:26:09.481Z,3.06
2023-01-19T12:31:17.768Z,2.70
2023-01-19T12:36:27.416Z,2.75
2023-01-19T12:41:34.216Z,2.28
2023-01-19T12:46:58.255Z,2.83
2023-01-19T12:52:41.600Z,2.68
2023-01-19T12:57:57.732Z,2.25
2023-01-19T13:03:31.558Z,2.91
2023-01-19T13:08:53.946Z,2.85
2023-01-19T13:14:36.667Z,2.75
2023-01-19T13:19:48.447Z,2.49
2023-01-19T13:25:32.057Z,2.49
2023-01-19T13:30:37.268Z,1.46
2023-01-19T13:35:59.549Z,2.06
2023-01-19T13:41:03.956Z,2.14
2023-01-19T13:46:07.579Z,2.49
2023-01-19T13:51:19.611Z,2.55
2023-01-19T13:56:25.075Z,2.53
2023-01-19T14:01:29.804Z,1.40
2023-01-19T14:06:38.773Z,2.52
2023-01-19T14:11:42.391Z,0.94
2023-01-19T14:16:45.691Z,1.82
2023-01-19T14:21:59.885Z,2.36
2023-01-19T14:27:20.311Z,2.44
2023-01-19T14:32:25.551Z,2.46
2023-01-19T14:37:33.378Z,2.49
2023-01-19T14:42:40.445Z,2.43
2023-01-19T14:47:47.199Z,2.08
2023-01-19T14:52:58.056Z,1.18
2023-01-19T14:58:16.498Z,2.51
2023-01-19T15:03:19.825Z,2.23
2023-01-19T15:08:29.896Z,2.12
2023-01-19T15:13:34.156Z,1.08
2023-01-19T15:18:37.758Z,1.90
2023-01-19T15:23:41.237Z,1.76
2023-01-19T15:28:54.918Z,2.11
2023-01-19T15:33:58.549Z,2.26
2023-01-19T15:39:02.787Z,2.01
2023-01-19T15:44:07.129Z,1.39
2023-01-19T15:49:10.707Z,1.04
2023-01-19T15:54:15.530Z,2.29
2023-01-19T15:59:19.051Z,2.12
2023-01-19T16:04:22.417Z,1.25
2023-01-19T16:09:26.269Z,1.18
2023-01-19T16:14:30.091Z,2.06
2023-01-19T16:19:33.492Z,1.26
2023-01-19T16:24:36.805Z,1.78
2023-01-19T16:29:40.365Z,1.46
2023-01-19T16:34:53.918Z,1.38
2023-01-19T16:39:57.305Z,1.48
2023-01-19T16:45:01.369Z,1.77
2023-01-19T16:50:12.376Z,1.41
2023-01-19T16:55:15.894Z,2.02
2023-01-19T17:00:19.499Z,0.70
2023-01-19T17:05:23.313Z,1.90
2023-01-19T17:10:26.561Z,1.49
2023-01-19T17:15:31.811Z,1.74
2023-01-19T17:20:45.145Z,1.96
2023-01-19T17:25:55.686Z,1.88
2023-01-19T17:31:08.047Z,1.94
2023-01-19T17:36:14.538Z,2.08
2023-01-19T17:41:36.863Z,2.07
2023-01-19T17:46:50.486Z,1.65
2023-01-19T17:51:55.502Z,1.96
2023-01-19T17:57:09.621Z,1.95
2023-01-19T18:02:13.057Z,1.65
2023-01-19T18:07:16.655Z,1.73
2023-01-19T18:12:20.986Z,1.94
2023-01-19T18:17:24.381Z,1.13
2023-01-19T18:22:27.599Z,0.40
2023-01-19T18:27:31.125Z,1.70
2023-01-19T18:32:35.721Z,1.86
2023-01-19T18:37:39.260Z,1.25
2023-01-19T18:42:42.613Z,1.58
2023-01-19T18:47:46.069Z,0.85
2023-01-19T18:52:52.262Z,1.25
2023-01-19T18:58:13.374Z,1.96
2023-01-19T19:03:34.448Z,1.85
2023-01-19T19:08:40.806Z,0.29
2023-01-19T19:14:03.145Z,2.04
2023-01-19T19:19:24.359Z,1.92
2023-01-19T19:24:45.477Z,1.87
2023-01-19T19:30:07.167Z,1.70
2023-01-19T19:35:28.833Z,1.58
2023-01-19T19:40:49.867Z,1.88
2023-01-19T19:46:16.303Z,1.92
2023-01-19T19:51:37.369Z,1.87
2023-01-19T19:56:40.849Z,1.78
2023-01-19T20:01:45.999Z,1.32
2023-01-19T20:06:49.802Z,1.79
2023-01-19T20:11:53.725Z,1.26
2023-01-19T20:16:57.090Z,1.45
2023-01-19T20:22:00.428Z,1.31
2023-01-19T20:27:03.732Z,0.28
2023-01-19T20:32:07.162Z,1.66
2023-01-19T20:37:11.035Z,1.55
2023-01-19T20:42:17.405Z,0.34
2023-01-19T20:47:30.849Z,1.04
2023-01-19T20:52:36.696Z,1.71
2023-01-19T20:57:41.183Z,1.42
2023-01-19T21:02:54.621Z,1.37
2023-01-19T21:07:58.110Z,0.88
2023-01-19T21:13:01.603Z,1.61
2023-01-19T21:18:05.224Z,1.52
2023-01-19T21:23:08.896Z,0.95
2023-01-19T21:28:12.902Z,0.43
2023-01-19T21:33:17.949Z,1.00
2023-01-19T21:38:30.633Z,1.61
2023-01-19T21:43:44.350Z,1.06
2023-01-19T21:48:48.689Z,1.72
2023-01-19T21:53:53.444Z,1.61
2023-01-19T21:58:58.405Z,1.69
2023-01-19T22:04:05.769Z,1.35
2023-01-19T22:09:09.566Z,1.68
2023-01-19T22:14:13.159Z,0.92
2023-01-19T22:19:18.591Z,1.63
2023-01-19T22:24:22.105Z,1.68
2023-01-19T22:29:25.489Z,0.57
2023-01-19T22:34:29.111Z,1.58
2023-01-19T22:39:32.646Z,1.55
2023-01-19T22:44:36.051Z,1.45
2023-01-19T22:49:39.334Z,1.03
2023-01-19T22:54:42.771Z,1.20
2023-01-19T22:59:46.428Z,1.42
2023-01-19T23:04:49.841Z,1.25
2023-01-19T23:09:53.411Z,0.42
2023-01-19T23:14:56.820Z,0.62
2023-01-19T23:20:00.387Z,1.60
2023-01-19T23:25:03.695Z,0.87
2023-01-19T23:30:07.847Z,1.11
2023-01-19T23:35:12.728Z,1.15
2023-01-19T23:40:16.398Z,1.49
2023-01-19T23:45:20.878Z,1.38
2023-01-19T23:50:24.234Z,1.47
2023-01-19T23:55:28.251Z,1.28
